Colombo, Sri Lanka
Current Conditions -  °F | °C
As of 1:10 AM on Sunday 21 Dec 2014 (Local Time) from VCBI Reporting Station
Clear Clear  
Wind Chill: 73°   Ceiling: Unl
Heat Index: 73°   Visibility: 6mi
Dew Point: 70°   Wind: 2mph
Humidity: 88%   Direction: NA
Pressure: 29.85"   Gusts: NA
Location:  6.93°N, 79.85°E
Report Text: VCBI 201910Z VRB02KT CAVOK 23/21 Q1011 NOSIG
Loading
Personal Weather Stations






























Interactive Weather Map New forecast layout! Learn more

10-Day Weather Forecast

Advertisements
Track Severe Weather on mobile